sensor_id;sensor_type;location;lat;lon;timestamp;P1;durP1;ratioP1;P2;durP2;ratioP2
69310;SDS011;56430;48.154;16.458;2023-07-16T00:01:56;4.43;;;1.98;;
69310;SDS011;56430;48.154;16.458;2023-07-16T00:04:22;3.30;;;1.80;;
69310;SDS011;56430;48.154;16.458;2023-07-16T00:06:49;5.28;;;1.90;;
69310;SDS011;56430;48.154;16.458;2023-07-16T00:09:16;4.28;;;2.15;;
69310;SDS011;56430;48.154;16.458;2023-07-16T00:11:43;4.30;;;2.05;;
69310;SDS011;56430;48.154;16.458;2023-07-16T00:14:10;7.18;;;2.20;;
69310;SDS011;56430;48.154;16.458;2023-07-16T00:16:39;3.60;;;1.83;;
69310;SDS011;56430;48.154;16.458;2023-07-16T00:19:05;4.20;;;2.10;;
69310;SDS011;56430;48.154;16.458;2023-07-16T00:21:32;4.70;;;2.35;;
69310;SDS011;56430;48.154;16.458;2023-07-16T00:23:59;4.57;;;2.10;;
69310;SDS011;56430;48.154;16.458;2023-07-16T00:26:26;4.05;;;2.30;;
69310;SDS011;56430;48.154;16.458;2023-07-16T00:28:53;4.68;;;2.10;;
69310;SDS011;56430;48.154;16.458;2023-07-16T00:31:19;6.13;;;2.40;;
69310;SDS011;56430;48.154;16.458;2023-07-16T00:33:48;4.90;;;2.30;;
69310;SDS011;56430;48.154;16.458;2023-07-16T00:36:14;5.45;;;2.50;;
69310;SDS011;56430;48.154;16.458;2023-07-16T00:38:41;5.38;;;2.30;;
69310;SDS011;56430;48.154;16.458;2023-07-16T00:41:08;4.15;;;2.30;;
69310;SDS011;56430;48.154;16.458;2023-07-16T00:43:35;5.22;;;2.10;;
69310;SDS011;56430;48.154;16.458;2023-07-16T00:46:02;3.92;;;2.20;;
69310;SDS011;56430;48.154;16.458;2023-07-16T00:48:29;6.73;;;2.30;;
69310;SDS011;56430;48.154;16.458;2023-07-16T00:50:57;3.63;;;2.28;;
69310;SDS011;56430;48.154;16.458;2023-07-16T00:53:24;5.50;;;2.30;;
69310;SDS011;56430;48.154;16.458;2023-07-16T00:55:51;5.88;;;2.20;;
69310;SDS011;56430;48.154;16.458;2023-07-16T00:58:18;5.07;;;2.40;;
69310;SDS011;56430;48.154;16.458;2023-07-16T01:00:45;7.53;;;2.30;;
69310;SDS011;56430;48.154;16.458;2023-07-16T01:03:12;4.17;;;2.03;;
69310;SDS011;56430;48.154;16.458;2023-07-16T01:05:41;4.03;;;2.23;;
69310;SDS011;56430;48.154;16.458;2023-07-16T01:08:10;3.72;;;2.38;;
69310;SDS011;56430;48.154;16.458;2023-07-16T01:10:38;4.25;;;2.05;;
69310;SDS011;56430;48.154;16.458;2023-07-16T01:13:05;5.50;;;2.00;;
69310;SDS011;56430;48.154;16.458;2023-07-16T01:15:32;5.32;;;2.40;;
69310;SDS011;56430;48.154;16.458;2023-07-16T01:17:59;4.45;;;2.25;;
69310;SDS011;56430;48.154;16.458;2023-07-16T01:20:27;6.37;;;2.37;;
69310;SDS011;56430;48.154;16.458;2023-07-16T01:23:01;4.07;;;2.40;;
69310;SDS011;56430;48.154;16.458;2023-07-16T01:25:45;5.35;;;2.65;;
69310;SDS011;56430;48.154;16.458;2023-07-16T01:28:19;4.45;;;2.30;;
69310;SDS011;56430;48.154;16.458;2023-07-16T01:30:49;3.72;;;2.15;;
69310;SDS011;56430;48.154;16.458;2023-07-16T01:33:17;4.00;;;2.30;;
69310;SDS011;56430;48.154;16.458;2023-07-16T01:35:46;4.43;;;2.23;;
69310;SDS011;56430;48.154;16.458;2023-07-16T01:38:13;4.10;;;1.80;;
69310;SDS011;56430;48.154;16.458;2023-07-16T01:40:41;4.57;;;2.22;;
69310;SDS011;56430;48.154;16.458;2023-07-16T01:43:08;7.07;;;2.38;;
69310;SDS011;56430;48.154;16.458;2023-07-16T01:45:35;5.55;;;2.38;;
69310;SDS011;56430;48.154;16.458;2023-07-16T01:48:05;5.60;;;2.27;;
69310;SDS011;56430;48.154;16.458;2023-07-16T01:50:36;5.20;;;2.57;;
69310;SDS011;56430;48.154;16.458;2023-07-16T01:53:03;6.05;;;2.25;;
69310;SDS011;56430;48.154;16.458;2023-07-16T01:55:29;4.70;;;2.70;;
69310;SDS011;56430;48.154;16.458;2023-07-16T01:57:56;4.47;;;2.40;;
69310;SDS011;56430;48.154;16.458;2023-07-16T02:00:23;4.45;;;2.40;;
69310;SDS011;56430;48.154;16.458;2023-07-16T02:02:50;4.57;;;2.50;;
69310;SDS011;56430;48.154;16.458;2023-07-16T02:05:18;3.80;;;2.23;;
69310;SDS011;56430;48.154;16.458;2023-07-16T02:07:45;4.47;;;3.15;;
69310;SDS011;56430;48.154;16.458;2023-07-16T02:10:11;4.93;;;2.42;;
69310;SDS011;56430;48.154;16.458;2023-07-16T02:12:38;5.07;;;2.70;;
69310;SDS011;56430;48.154;16.458;2023-07-16T02:15:06;5.32;;;2.78;;
69310;SDS011;56430;48.154;16.458;2023-07-16T02:17:33;5.07;;;2.57;;
69310;SDS011;56430;48.154;16.458;2023-07-16T02:19:59;5.53;;;3.23;;
69310;SDS011;56430;48.154;16.458;2023-07-16T02:22:28;4.90;;;2.95;;
69310;SDS011;56430;48.154;16.458;2023-07-16T02:24:54;5.47;;;3.00;;
69310;SDS011;56430;48.154;16.458;2023-07-16T02:27:21;6.20;;;3.28;;
69310;SDS011;56430;48.154;16.458;2023-07-16T02:29:48;5.13;;;3.00;;
69310;SDS011;56430;48.154;16.458;2023-07-16T02:32:15;6.73;;;3.67;;
69310;SDS011;56430;48.154;16.458;2023-07-16T02:34:42;5.57;;;3.40;;
69310;SDS011;56430;48.154;16.458;2023-07-16T02:37:08;6.40;;;3.47;;
69310;SDS011;56430;48.154;16.458;2023-07-16T02:39:38;6.53;;;3.40;;
69310;SDS011;56430;48.154;16.458;2023-07-16T02:42:05;4.53;;;3.22;;
69310;SDS011;56430;48.154;16.458;2023-07-16T02:44:31;5.57;;;3.27;;
69310;SDS011;56430;48.154;16.458;2023-07-16T02:46:58;7.13;;;3.23;;
69310;SDS011;56430;48.154;16.458;2023-07-16T02:49:25;5.38;;;3.13;;
69310;SDS011;56430;48.154;16.458;2023-07-16T02:51:53;4.75;;;2.90;;
69310;SDS011;56430;48.154;16.458;2023-07-16T02:54:20;4.63;;;3.13;;
69310;SDS011;56430;48.154;16.458;2023-07-16T02:56:48;4.95;;;3.30;;
69310;SDS011;56430;48.154;16.458;2023-07-16T02:59:15;7.28;;;3.83;;
69310;SDS011;56430;48.154;16.458;2023-07-16T03:01:42;6.57;;;3.63;;
69310;SDS011;56430;48.154;16.458;2023-07-16T03:04:08;6.38;;;3.25;;
69310;SDS011;56430;48.154;16.458;2023-07-16T03:06:35;5.75;;;3.83;;
69310;SDS011;56430;48.154;16.458;2023-07-16T03:09:02;6.53;;;4.13;;
69310;SDS011;56430;48.154;16.458;2023-07-16T03:11:29;6.32;;;4.50;;
69310;SDS011;56430;48.154;16.458;2023-07-16T03:13:57;7.83;;;3.77;;
69310;SDS011;56430;48.154;16.458;2023-07-16T03:16:24;5.87;;;3.93;;
69310;SDS011;56430;48.154;16.458;2023-07-16T03:18:52;6.78;;;3.63;;
69310;SDS011;56430;48.154;16.458;2023-07-16T03:21:19;6.22;;;3.83;;
69310;SDS011;56430;48.154;16.458;2023-07-16T03:23:46;7.22;;;3.88;;
69310;SDS011;56430;48.154;16.458;2023-07-16T03:26:13;6.68;;;3.70;;
69310;SDS011;56430;48.154;16.458;2023-07-16T03:28:40;6.73;;;3.93;;
69310;SDS011;56430;48.154;16.458;2023-07-16T03:31:08;6.03;;;3.60;;
69310;SDS011;56430;48.154;16.458;2023-07-16T03:33:34;6.32;;;3.92;;
69310;SDS011;56430;48.154;16.458;2023-07-16T03:36:01;7.07;;;4.68;;
69310;SDS011;56430;48.154;16.458;2023-07-16T03:38:28;5.15;;;3.50;;
69310;SDS011;56430;48.154;16.458;2023-07-16T03:40:55;4.95;;;3.70;;
69310;SDS011;56430;48.154;16.458;2023-07-16T03:43:22;5.97;;;4.20;;
69310;SDS011;56430;48.154;16.458;2023-07-16T03:45:48;6.55;;;4.50;;
69310;SDS011;56430;48.154;16.458;2023-07-16T03:48:17;7.57;;;4.50;;
69310;SDS011;56430;48.154;16.458;2023-07-16T03:50:43;6.68;;;4.07;;
69310;SDS011;56430;48.154;16.458;2023-07-16T03:53:11;5.95;;;4.35;;
69310;SDS011;56430;48.154;16.458;2023-07-16T03:55:37;6.33;;;4.47;;
69310;SDS011;56430;48.154;16.458;2023-07-16T03:58:04;7.03;;;4.50;;
69310;SDS011;56430;48.154;16.458;2023-07-16T04:00:31;7.82;;;4.70;;
69310;SDS011;56430;48.154;16.458;2023-07-16T04:02:58;7.55;;;4.57;;
69310;SDS011;56430;48.154;16.458;2023-07-16T04:05:27;5.72;;;4.00;;
69310;SDS011;56430;48.154;16.458;2023-07-16T04:07:53;6.22;;;4.40;;
69310;SDS011;56430;48.154;16.458;2023-07-16T04:10:20;6.70;;;4.40;;
69310;SDS011;56430;48.154;16.458;2023-07-16T04:12:47;6.88;;;4.43;;
69310;SDS011;56430;48.154;16.458;2023-07-16T04:15:14;7.10;;;4.80;;
69310;SDS011;56430;48.154;16.458;2023-07-16T04:17:41;6.95;;;4.68;;
69310;SDS011;56430;48.154;16.458;2023-07-16T04:20:08;7.20;;;4.90;;
69310;SDS011;56430;48.154;16.458;2023-07-16T04:22:36;7.70;;;5.17;;
69310;SDS011;56430;48.154;16.458;2023-07-16T04:25:03;6.80;;;4.53;;
69310;SDS011;56430;48.154;16.458;2023-07-16T04:27:30;7.32;;;5.35;;
69310;SDS011;56430;48.154;16.458;2023-07-16T04:29:57;10.05;;;5.60;;
69310;SDS011;56430;48.154;16.458;2023-07-16T04:32:24;8.18;;;5.53;;
69310;SDS011;56430;48.154;16.458;2023-07-16T04:34:51;8.27;;;5.50;;
69310;SDS011;56430;48.154;16.458;2023-07-16T04:37:17;7.67;;;5.00;;
69310;SDS011;56430;48.154;16.458;2023-07-16T04:39:46;8.10;;;4.60;;
69310;SDS011;56430;48.154;16.458;2023-07-16T04:42:12;6.40;;;4.85;;
69310;SDS011;56430;48.154;16.458;2023-07-16T04:44:39;6.90;;;4.63;;
69310;SDS011;56430;48.154;16.458;2023-07-16T04:47:06;8.43;;;4.70;;
69310;SDS011;56430;48.154;16.458;2023-07-16T04:49:34;7.10;;;4.95;;
69310;SDS011;56430;48.154;16.458;2023-07-16T04:52:01;7.37;;;5.00;;
69310;SDS011;56430;48.154;16.458;2023-07-16T04:54:28;6.43;;;4.37;;
69310;SDS011;56430;48.154;16.458;2023-07-16T04:56:56;6.97;;;3.95;;
69310;SDS011;56430;48.154;16.458;2023-07-16T04:59:23;7.32;;;4.80;;
69310;SDS011;56430;48.154;16.458;2023-07-16T05:01:50;6.20;;;4.22;;
69310;SDS011;56430;48.154;16.458;2023-07-16T05:04:16;5.80;;;4.22;;
69310;SDS011;56430;48.154;16.458;2023-07-16T05:06:43;6.63;;;4.57;;
69310;SDS011;56430;48.154;16.458;2023-07-16T05:09:10;6.43;;;4.13;;
69310;SDS011;56430;48.154;16.458;2023-07-16T05:11:37;10.23;;;4.72;;
69310;SDS011;56430;48.154;16.458;2023-07-16T05:14:05;6.00;;;4.47;;
69310;SDS011;56430;48.154;16.458;2023-07-16T05:16:32;7.10;;;4.30;;
69310;SDS011;56430;48.154;16.458;2023-07-16T05:18:59;5.93;;;4.22;;
69310;SDS011;56430;48.154;16.458;2023-07-16T05:21:25;8.33;;;4.27;;
69310;SDS011;56430;48.154;16.458;2023-07-16T05:23:52;5.27;;;4.00;;
69310;SDS011;56430;48.154;16.458;2023-07-16T05:26:19;6.35;;;4.07;;
69310;SDS011;56430;48.154;16.458;2023-07-16T05:28:46;5.97;;;3.78;;
69310;SDS011;56430;48.154;16.458;2023-07-16T05:31:14;7.15;;;3.50;;
69310;SDS011;56430;48.154;16.458;2023-07-16T05:33:41;5.00;;;3.55;;
69310;SDS011;56430;48.154;16.458;2023-07-16T05:36:07;5.13;;;3.20;;
69310;SDS011;56430;48.154;16.458;2023-07-16T05:38:34;5.10;;;2.90;;
69310;SDS011;56430;48.154;16.458;2023-07-16T05:41:01;5.15;;;2.88;;
69310;SDS011;56430;48.154;16.458;2023-07-16T05:43:29;6.80;;;2.88;;
69310;SDS011;56430;48.154;16.458;2023-07-16T05:45:55;5.40;;;3.00;;
69310;SDS011;56430;48.154;16.458;2023-07-16T05:48:24;4.72;;;3.08;;
69310;SDS011;56430;48.154;16.458;2023-07-16T05:50:51;4.53;;;2.80;;
69310;SDS011;56430;48.154;16.458;2023-07-16T05:53:18;5.00;;;2.93;;
69310;SDS011;56430;48.154;16.458;2023-07-16T05:55:45;5.00;;;3.00;;
69310;SDS011;56430;48.154;16.458;2023-07-16T05:58:12;4.03;;;2.63;;
69310;SDS011;56430;48.154;16.458;2023-07-16T06:00:38;5.88;;;2.72;;
69310;SDS011;56430;48.154;16.458;2023-07-16T06:03:05;5.07;;;2.50;;
69310;SDS011;56430;48.154;16.458;2023-07-16T06:05:34;5.38;;;3.00;;
69310;SDS011;56430;48.154;16.458;2023-07-16T06:08:02;16.15;;;8.52;;
69310;SDS011;56430;48.154;16.458;2023-07-16T06:10:29;10.65;;;6.00;;
69310;SDS011;56430;48.154;16.458;2023-07-16T06:12:56;8.88;;;4.50;;
69310;SDS011;56430;48.154;16.458;2023-07-16T06:15:23;8.33;;;4.67;;
69310;SDS011;56430;48.154;16.458;2023-07-16T06:17:49;5.67;;;3.80;;
69310;SDS011;56430;48.154;16.458;2023-07-16T06:20:17;7.18;;;3.00;;
69310;SDS011;56430;48.154;16.458;2023-07-16T06:22:45;5.00;;;3.03;;
69310;SDS011;56430;48.154;16.458;2023-07-16T06:25:12;8.93;;;4.10;;
69310;SDS011;56430;48.154;16.458;2023-07-16T06:27:39;4.55;;;2.90;;
69310;SDS011;56430;48.154;16.458;2023-07-16T06:30:06;5.10;;;3.17;;
69310;SDS011;56430;48.154;16.458;2023-07-16T06:32:33;5.65;;;3.38;;
69310;SDS011;56430;48.154;16.458;2023-07-16T06:35:00;6.70;;;4.05;;
69310;SDS011;56430;48.154;16.458;2023-07-16T06:37:27;6.20;;;3.67;;
69310;SDS011;56430;48.154;16.458;2023-07-16T06:39:55;6.10;;;2.70;;
69310;SDS011;56430;48.154;16.458;2023-07-16T06:42:22;5.18;;;2.90;;
69310;SDS011;56430;48.154;16.458;2023-07-16T06:44:48;6.03;;;3.33;;
69310;SDS011;56430;48.154;16.458;2023-07-16T06:47:15;5.57;;;2.90;;
69310;SDS011;56430;48.154;16.458;2023-07-16T06:49:42;38.63;;;24.35;;
69310;SDS011;56430;48.154;16.458;2023-07-16T06:52:17;25.30;;;14.13;;
69310;SDS011;56430;48.154;16.458;2023-07-16T06:54:44;8.73;;;4.00;;
69310;SDS011;56430;48.154;16.458;2023-07-16T06:57:12;10.90;;;5.15;;
69310;SDS011;56430;48.154;16.458;2023-07-16T06:59:39;4.57;;;3.10;;
69310;SDS011;56430;48.154;16.458;2023-07-16T07:02:06;4.83;;;3.30;;
69310;SDS011;56430;48.154;16.458;2023-07-16T07:04:33;5.40;;;3.00;;
69310;SDS011;56430;48.154;16.458;2023-07-16T07:07:00;4.47;;;2.90;;
69310;SDS011;56430;48.154;16.458;2023-07-16T07:09:27;5.05;;;3.22;;
69310;SDS011;56430;48.154;16.458;2023-07-16T07:11:54;4.18;;;2.50;;
69310;SDS011;56430;48.154;16.458;2023-07-16T07:14:22;6.63;;;3.03;;
69310;SDS011;56430;48.154;16.458;2023-07-16T07:16:49;5.00;;;2.70;;
69310;SDS011;56430;48.154;16.458;2023-07-16T07:19:15;4.95;;;3.05;;
69310;SDS011;56430;48.154;16.458;2023-07-16T07:21:42;4.53;;;2.63;;
69310;SDS011;56430;48.154;16.458;2023-07-16T07:24:09;3.67;;;2.60;;
69310;SDS011;56430;48.154;16.458;2023-07-16T07:26:36;5.33;;;2.60;;
69310;SDS011;56430;48.154;16.458;2023-07-16T07:29:03;5.07;;;2.70;;
69310;SDS011;56430;48.154;16.458;2023-07-16T07:31:31;3.67;;;2.47;;
69310;SDS011;56430;48.154;16.458;2023-07-16T07:33:58;3.88;;;2.65;;
69310;SDS011;56430;48.154;16.458;2023-07-16T07:36:25;3.78;;;2.58;;
69310;SDS011;56430;48.154;16.458;2023-07-16T07:38:51;4.07;;;2.38;;
69310;SDS011;56430;48.154;16.458;2023-07-16T07:41:18;4.07;;;2.70;;
69310;SDS011;56430;48.154;16.458;2023-07-16T07:43:45;7.18;;;2.80;;
69310;SDS011;56430;48.154;16.458;2023-07-16T07:46:12;4.40;;;2.70;;
69310;SDS011;56430;48.154;16.458;2023-07-16T07:48:40;4.22;;;2.42;;
69310;SDS011;56430;48.154;16.458;2023-07-16T07:51:07;3.40;;;2.50;;
69310;SDS011;56430;48.154;16.458;2023-07-16T07:53:34;2.93;;;2.13;;
69310;SDS011;56430;48.154;16.458;2023-07-16T07:56:00;2.95;;;2.10;;
69310;SDS011;56430;48.154;16.458;2023-07-16T07:58:27;4.28;;;2.38;;
69310;SDS011;56430;48.154;16.458;2023-07-16T08:00:54;3.60;;;2.30;;
69310;SDS011;56430;48.154;16.458;2023-07-16T08:03:21;3.72;;;2.10;;
69310;SDS011;56430;48.154;16.458;2023-07-16T08:05:49;7.13;;;2.30;;
69310;SDS011;56430;48.154;16.458;2023-07-16T08:08:16;3.00;;;1.90;;
69310;SDS011;56430;48.154;16.458;2023-07-16T08:10:43;3.95;;;2.50;;
69310;SDS011;56430;48.154;16.458;2023-07-16T08:13:11;3.10;;;2.10;;
69310;SDS011;56430;48.154;16.458;2023-07-16T08:15:38;3.40;;;2.17;;
69310;SDS011;56430;48.154;16.458;2023-07-16T08:18:05;2.90;;;2.03;;
69310;SDS011;56430;48.154;16.458;2023-07-16T08:20:32;3.83;;;2.38;;
69310;SDS011;56430;48.154;16.458;2023-07-16T08:23:00;5.22;;;2.30;;
69310;SDS011;56430;48.154;16.458;2023-07-16T08:25:27;3.58;;;2.13;;
69310;SDS011;56430;48.154;16.458;2023-07-16T08:27:54;3.78;;;2.20;;
69310;SDS011;56430;48.154;16.458;2023-07-16T08:30:21;2.58;;;2.15;;
69310;SDS011;56430;48.154;16.458;2023-07-16T08:32:48;3.28;;;2.58;;
69310;SDS011;56430;48.154;16.458;2023-07-16T08:35:15;3.13;;;2.13;;
69310;SDS011;56430;48.154;16.458;2023-07-16T08:37:43;5.72;;;2.40;;
69310;SDS011;56430;48.154;16.458;2023-07-16T08:40:11;2.40;;;2.20;;
69310;SDS011;56430;48.154;16.458;2023-07-16T08:42:39;3.00;;;2.60;;
69310;SDS011;56430;48.154;16.458;2023-07-16T08:45:06;3.95;;;2.75;;
69310;SDS011;56430;48.154;16.458;2023-07-16T08:47:33;3.38;;;2.65;;
69310;SDS011;56430;48.154;16.458;2023-07-16T08:50:01;3.33;;;2.70;;
69310;SDS011;56430;48.154;16.458;2023-07-16T08:52:28;3.90;;;2.83;;
69310;SDS011;56430;48.154;16.458;2023-07-16T08:54:55;3.30;;;3.00;;
69310;SDS011;56430;48.154;16.458;2023-07-16T08:57:24;3.80;;;3.50;;
69310;SDS011;56430;48.154;16.458;2023-07-16T08:59:51;3.78;;;3.42;;
69310;SDS011;56430;48.154;16.458;2023-07-16T09:02:18;4.15;;;3.15;;
69310;SDS011;56430;48.154;16.458;2023-07-16T09:04:46;4.10;;;3.70;;
69310;SDS011;56430;48.154;16.458;2023-07-16T09:07:13;4.00;;;3.60;;
69310;SDS011;56430;48.154;16.458;2023-07-16T09:09:40;4.03;;;3.72;;
69310;SDS011;56430;48.154;16.458;2023-07-16T09:12:09;4.15;;;3.75;;
69310;SDS011;56430;48.154;16.458;2023-07-16T09:14:39;4.63;;;4.22;;
69310;SDS011;56430;48.154;16.458;2023-07-16T09:17:06;4.50;;;4.10;;
69310;SDS011;56430;48.154;16.458;2023-07-16T09:19:33;4.60;;;4.00;;
69310;SDS011;56430;48.154;16.458;2023-07-16T09:22:00;4.47;;;4.07;;
69310;SDS011;56430;48.154;16.458;2023-07-16T09:24:27;4.70;;;4.30;;
69310;SDS011;56430;48.154;16.458;2023-07-16T09:26:55;4.50;;;4.20;;
69310;SDS011;56430;48.154;16.458;2023-07-16T09:29:22;4.50;;;4.10;;
69310;SDS011;56430;48.154;16.458;2023-07-16T09:31:54;6.77;;;4.20;;
69310;SDS011;56430;48.154;16.458;2023-07-16T09:34:21;4.72;;;4.32;;
69310;SDS011;56430;48.154;16.458;2023-07-16T09:36:48;6.55;;;4.22;;
69310;SDS011;56430;48.154;16.458;2023-07-16T09:39:16;5.05;;;4.65;;
69310;SDS011;56430;48.154;16.458;2023-07-16T09:41:43;5.15;;;4.75;;
69310;SDS011;56430;48.154;16.458;2023-07-16T09:44:10;5.00;;;4.60;;
69310;SDS011;56430;48.154;16.458;2023-07-16T09:46:38;4.68;;;4.35;;
69310;SDS011;56430;48.154;16.458;2023-07-16T09:49:06;4.70;;;4.30;;
69310;SDS011;56430;48.154;16.458;2023-07-16T09:51:33;5.53;;;5.05;;
69310;SDS011;56430;48.154;16.458;2023-07-16T09:54:02;5.30;;;4.90;;
69310;SDS011;56430;48.154;16.458;2023-07-16T09:56:30;5.40;;;4.90;;
69310;SDS011;56430;48.154;16.458;2023-07-16T09:58:58;5.70;;;5.20;;
69310;SDS011;56430;48.154;16.458;2023-07-16T10:01:25;5.60;;;5.20;;
69310;SDS011;56430;48.154;16.458;2023-07-16T10:03:52;5.85;;;5.35;;
69310;SDS011;56430;48.154;16.458;2023-07-16T10:06:20;5.60;;;5.20;;
69310;SDS011;56430;48.154;16.458;2023-07-16T10:08:48;5.53;;;5.10;;
69310;SDS011;56430;48.154;16.458;2023-07-16T10:11:16;5.30;;;4.90;;
69310;SDS011;56430;48.154;16.458;2023-07-16T10:13:43;6.50;;;5.63;;
69310;SDS011;56430;48.154;16.458;2023-07-16T10:16:19;6.20;;;5.70;;
69310;SDS011;56430;48.154;16.458;2023-07-16T10:18:49;5.57;;;4.90;;
69310;SDS011;56430;48.154;16.458;2023-07-16T10:21:23;5.73;;;5.33;;
69310;SDS011;56430;48.154;16.458;2023-07-16T10:23:56;5.35;;;4.95;;
69310;SDS011;56430;48.154;16.458;2023-07-16T10:26:26;7.75;;;7.25;;
69310;SDS011;56430;48.154;16.458;2023-07-16T10:28:53;6.32;;;5.82;;
69310;SDS011;56430;48.154;16.458;2023-07-16T10:31:20;7.00;;;6.50;;
69310;SDS011;56430;48.154;16.458;2023-07-16T10:33:55;6.28;;;5.68;;
69310;SDS011;56430;48.154;16.458;2023-07-16T10:36:24;6.10;;;5.70;;
69310;SDS011;56430;48.154;16.458;2023-07-16T10:38:51;6.85;;;6.18;;
69310;SDS011;56430;48.154;16.458;2023-07-16T10:41:18;5.90;;;5.50;;
69310;SDS011;56430;48.154;16.458;2023-07-16T10:43:44;6.83;;;6.33;;
69310;SDS011;56430;48.154;16.458;2023-07-16T10:46:11;5.93;;;5.53;;
69310;SDS011;56430;48.154;16.458;2023-07-16T10:48:45;6.28;;;5.82;;
69310;SDS011;56430;48.154;16.458;2023-07-16T10:51:13;6.43;;;5.93;;
69310;SDS011;56430;48.154;16.458;2023-07-16T10:53:42;6.32;;;5.82;;
69310;SDS011;56430;48.154;16.458;2023-07-16T10:56:09;6.20;;;5.70;;
69310;SDS011;56430;48.154;16.458;2023-07-16T10:58:36;6.95;;;6.40;;
69310;SDS011;56430;48.154;16.458;2023-07-16T11:01:02;5.90;;;5.50;;
69310;SDS011;56430;48.154;16.458;2023-07-16T11:03:29;6.55;;;5.95;;
69310;SDS011;56430;48.154;16.458;2023-07-16T11:05:56;6.18;;;5.60;;
69310;SDS011;56430;48.154;16.458;2023-07-16T11:08:23;6.20;;;5.70;;
69310;SDS011;56430;48.154;16.458;2023-07-16T11:10:55;6.10;;;5.70;;
69310;SDS011;56430;48.154;16.458;2023-07-16T11:13:25;6.15;;;5.55;;
69310;SDS011;56430;48.154;16.458;2023-07-16T11:15:51;5.88;;;5.43;;
69310;SDS011;56430;48.154;16.458;2023-07-16T11:18:18;7.45;;;5.72;;
69310;SDS011;56430;48.154;16.458;2023-07-16T11:20:45;6.30;;;5.80;;
69310;SDS011;56430;48.154;16.458;2023-07-16T11:23:13;5.35;;;4.95;;
69310;SDS011;56430;48.154;16.458;2023-07-16T11:25:45;5.28;;;4.88;;
69310;SDS011;56430;48.154;16.458;2023-07-16T11:28:13;5.57;;;5.18;;
69310;SDS011;56430;48.154;16.458;2023-07-16T11:30:40;5.47;;;5.05;;
69310;SDS011;56430;48.154;16.458;2023-07-16T11:33:09;4.70;;;4.23;;
69310;SDS011;56430;48.154;16.458;2023-07-16T11:35:36;5.27;;;4.80;;
69310;SDS011;56430;48.154;16.458;2023-07-16T11:38:04;4.20;;;3.80;;
69310;SDS011;56430;48.154;16.458;2023-07-16T11:40:31;4.50;;;4.10;;
69310;SDS011;56430;48.154;16.458;2023-07-16T11:43:07;4.10;;;3.70;;
69310;SDS011;56430;48.154;16.458;2023-07-16T11:45:35;4.15;;;3.75;;
69310;SDS011;56430;48.154;16.458;2023-07-16T11:48:02;4.20;;;3.80;;
69310;SDS011;56430;48.154;16.458;2023-07-16T11:50:29;3.80;;;3.40;;
69310;SDS011;56430;48.154;16.458;2023-07-16T11:52:59;4.03;;;3.67;;
69310;SDS011;56430;48.154;16.458;2023-07-16T11:55:26;3.70;;;3.40;;
69310;SDS011;56430;48.154;16.458;2023-07-16T11:57:53;3.50;;;3.20;;
69310;SDS011;56430;48.154;16.458;2023-07-16T12:00:22;3.60;;;3.30;;
69310;SDS011;56430;48.154;16.458;2023-07-16T12:02:50;3.58;;;3.28;;
69310;SDS011;56430;48.154;16.458;2023-07-16T12:05:17;3.38;;;3.08;;
69310;SDS011;56430;48.154;16.458;2023-07-16T12:07:44;3.47;;;3.17;;
69310;SDS011;56430;48.154;16.458;2023-07-16T12:10:11;3.75;;;3.40;;
69310;SDS011;56430;48.154;16.458;2023-07-16T12:12:37;4.43;;;3.38;;
69310;SDS011;56430;48.154;16.458;2023-07-16T12:15:05;3.22;;;2.92;;
69310;SDS011;56430;48.154;16.458;2023-07-16T12:17:32;3.20;;;2.90;;
69310;SDS011;56430;48.154;16.458;2023-07-16T12:20:00;3.88;;;3.47;;
69310;SDS011;56430;48.154;16.458;2023-07-16T12:22:27;3.80;;;3.40;;
69310;SDS011;56430;48.154;16.458;2023-07-16T12:24:54;4.67;;;3.27;;
69310;SDS011;56430;48.154;16.458;2023-07-16T12:27:20;3.67;;;3.20;;
69310;SDS011;56430;48.154;16.458;2023-07-16T12:29:47;3.42;;;3.03;;
69310;SDS011;56430;48.154;16.458;2023-07-16T12:32:15;3.40;;;3.10;;
69310;SDS011;56430;48.154;16.458;2023-07-16T12:34:42;3.88;;;3.55;;
69310;SDS011;56430;48.154;16.458;2023-07-16T12:37:11;3.45;;;3.15;;
69310;SDS011;56430;48.154;16.458;2023-07-16T12:39:38;3.45;;;3.15;;
69310;SDS011;56430;48.154;16.458;2023-07-16T12:42:05;4.13;;;3.50;;
69310;SDS011;56430;48.154;16.458;2023-07-16T12:44:32;3.88;;;3.30;;
69310;SDS011;56430;48.154;16.458;2023-07-16T12:46:59;3.53;;;3.23;;
69310;SDS011;56430;48.154;16.458;2023-07-16T12:49:25;3.30;;;3.00;;
69310;SDS011;56430;48.154;16.458;2023-07-16T12:51:52;3.47;;;3.17;;
69310;SDS011;56430;48.154;16.458;2023-07-16T12:54:20;3.10;;;2.80;;
69310;SDS011;56430;48.154;16.458;2023-07-16T12:56:47;3.50;;;3.20;;
69310;SDS011;56430;48.154;16.458;2023-07-16T12:59:14;3.40;;;3.10;;
69310;SDS011;56430;48.154;16.458;2023-07-16T13:01:41;3.42;;;3.13;;
69310;SDS011;56430;48.154;16.458;2023-07-16T13:04:08;3.47;;;3.17;;
69310;SDS011;56430;48.154;16.458;2023-07-16T13:06:36;3.53;;;3.10;;
69310;SDS011;56430;48.154;16.458;2023-07-16T13:09:03;3.30;;;3.00;;
69310;SDS011;56430;48.154;16.458;2023-07-16T13:11:32;2.90;;;2.60;;
69310;SDS011;56430;48.154;16.458;2023-07-16T13:14:00;3.40;;;3.10;;
69310;SDS011;56430;48.154;16.458;2023-07-16T13:16:27;4.53;;;2.70;;
69310;SDS011;56430;48.154;16.458;2023-07-16T13:18:54;2.92;;;2.63;;
69310;SDS011;56430;48.154;16.458;2023-07-16T13:21:22;3.13;;;2.53;;
69310;SDS011;56430;48.154;16.458;2023-07-16T13:23:50;3.15;;;2.60;;
69310;SDS011;56430;48.154;16.458;2023-07-16T13:26:18;2.78;;;2.53;;
69310;SDS011;56430;48.154;16.458;2023-07-16T13:28:47;2.75;;;2.45;;
69310;SDS011;56430;48.154;16.458;2023-07-16T13:31:16;2.78;;;2.47;;
69310;SDS011;56430;48.154;16.458;2023-07-16T13:33:44;3.05;;;2.70;;
69310;SDS011;56430;48.154;16.458;2023-07-16T13:36:12;3.33;;;3.03;;
69310;SDS011;56430;48.154;16.458;2023-07-16T13:38:40;3.23;;;2.93;;
69310;SDS011;56430;48.154;16.458;2023-07-16T13:41:07;3.13;;;2.55;;
69310;SDS011;56430;48.154;16.458;2023-07-16T13:43:35;2.90;;;2.60;;
69310;SDS011;56430;48.154;16.458;2023-07-16T13:46:05;3.20;;;2.60;;
69310;SDS011;56430;48.154;16.458;2023-07-16T13:48:33;3.22;;;2.92;;
69310;SDS011;56430;48.154;16.458;2023-07-16T13:51:01;2.90;;;2.60;;
69310;SDS011;56430;48.154;16.458;2023-07-16T13:56:32;2.88;;;2.60;;
69310;SDS011;56430;48.154;16.458;2023-07-16T13:59:00;3.30;;;3.00;;
69310;SDS011;56430;48.154;16.458;2023-07-16T14:01:29;2.80;;;2.50;;
69310;SDS011;56430;48.154;16.458;2023-07-16T14:03:57;3.27;;;2.97;;
69310;SDS011;56430;48.154;16.458;2023-07-16T14:06:26;2.90;;;2.60;;
69310;SDS011;56430;48.154;16.458;2023-07-16T14:08:54;2.85;;;2.60;;
69310;SDS011;56430;48.154;16.458;2023-07-16T14:11:22;3.13;;;2.83;;
69310;SDS011;56430;48.154;16.458;2023-07-16T14:13:50;2.97;;;2.67;;
69310;SDS011;56430;48.154;16.458;2023-07-16T14:16:19;2.60;;;2.40;;
69310;SDS011;56430;48.154;16.458;2023-07-16T14:21:18;3.67;;;2.83;;
69310;SDS011;56430;48.154;16.458;2023-07-16T14:23:46;3.28;;;2.70;;
69310;SDS011;56430;48.154;16.458;2023-07-16T14:26:15;2.90;;;2.50;;
69310;SDS011;56430;48.154;16.458;2023-07-16T14:28:42;3.60;;;2.33;;
69310;SDS011;56430;48.154;16.458;2023-07-16T14:31:10;2.60;;;2.40;;
69310;SDS011;56430;48.154;16.458;2023-07-16T14:33:38;3.03;;;2.72;;
69310;SDS011;56430;48.154;16.458;2023-07-16T14:36:07;3.00;;;2.70;;
69310;SDS011;56430;48.154;16.458;2023-07-16T14:38:36;3.42;;;2.63;;
69310;SDS011;56430;48.154;16.458;2023-07-16T14:41:04;3.03;;;2.33;;